Time;durP1;ratioP1;P1;durP2;ratioP2;P2;SDS_P1;SDS_P2;PMS_P1;PMS_P2;Temp;Humidity;BMP_temperature;BMP_pressure;BME280_temperature;BME280_humidity;BME280_pressure;Samples;Min_cycle;Max_cycle;Signal;HPM_P1;HPM_P2
2023/12/07 00:00:10;;;;;;;0.30;0.30;;;;;;;;;;6294059;28;20048;-74
2023/12/07 00:03:10;;;;;;;0.30;0.30;;;;;;;;;;6293842;28;20562;-74
2023/12/07 00:06:11;;;;;;;0.30;0.30;;;;;;;;;;6275647;28;20024;-74
2023/12/07 00:09:11;;;;;;;0.30;0.30;;;;;;;;;;6293583;28;20112;-75
2023/12/07 00:12:11;;;;;;;0.30;0.30;;;;;;;;;;6294020;28;20046;-75
2023/12/07 00:15:11;;;;;;;0.30;0.30;;;;;;;;;;6293569;28;20386;-74
2023/12/07 00:18:12;;;;;;;0.20;0.20;;;;;;;;;;6292849;28;20124;-74
2023/12/07 00:21:12;;;;;;;0.30;0.30;;;;;;;;;;6293354;28;20092;-74
2023/12/07 00:24:12;;;;;;;0.30;0.30;;;;;;;;;;6275421;28;20025;-86
2023/12/07 00:27:12;;;;;;;0.20;0.20;;;;;;;;;;6293378;28;20019;-85
2023/12/07 00:30:13;;;;;;;0.30;0.30;;;;;;;;;;6284850;28;20478;-87
2023/12/07 00:33:13;;;;;;;0.20;0.20;;;;;;;;;;6297289;28;20620;-86
2023/12/07 00:36:13;;;;;;;0.20;0.20;;;;;;;;;;6293189;28;20023;-87
2023/12/07 00:39:13;;;;;;;0.20;0.20;;;;;;;;;;6274623;28;20017;-87
2023/12/07 00:42:14;;;;;;;0.20;0.20;;;;;;;;;;6292804;28;20004;-88
2023/12/07 00:45:14;;;;;;;0.20;0.20;;;;;;;;;;6293335;28;20119;-87
2023/12/07 00:48:14;;;;;;;0.30;0.30;;;;;;;;;;6305652;28;20516;-88
2023/12/07 00:51:15;;;;;;;0.20;0.20;;;;;;;;;;6294603;28;20371;-88
2023/12/07 00:54:15;;;;;;;0.20;0.20;;;;;;;;;;6294508;28;20008;-87
2023/12/07 00:57:15;;;;;;;0.30;0.30;;;;;;;;;;6300407;28;20016;-87
2023/12/07 01:00:16;;;;;;;0.30;0.30;;;;;;;;;;6293701;28;20059;-87
2023/12/07 01:03:16;;;;;;;0.30;0.30;;;;;;;;;;6292034;28;20040;-86
2023/12/07 01:06:16;;;;;;;0.30;0.30;;;;;;;;;;6292418;28;20503;-85
2023/12/07 01:09:16;;;;;;;0.30;0.30;;;;;;;;;;6273832;28;20363;-85
2023/12/07 01:12:17;;;;;;;0.20;0.20;;;;;;;;;;6305706;28;20028;-85
2023/12/07 01:15:18;;;;;;;0.30;0.30;;;;;;;;;;6272825;28;20462;-85
2023/12/07 01:18:18;;;;;;;0.20;0.20;;;;;;;;;;6304801;28;20047;-84
2023/12/07 01:21:18;;;;;;;0.20;0.20;;;;;;;;;;6291826;28;20016;-85
2023/12/07 01:24:18;;;;;;;0.30;0.30;;;;;;;;;;6302050;28;20078;-85
2023/12/07 01:27:19;;;;;;;0.20;0.20;;;;;;;;;;6285605;28;20115;-84
2023/12/07 01:30:19;;;;;;;0.20;0.20;;;;;;;;;;6286935;28;20063;-84
2023/12/07 01:33:19;;;;;;;0.30;0.30;;;;;;;;;;6291995;28;20025;-75
2023/12/07 01:36:20;;;;;;;0.30;0.30;;;;;;;;;;6291171;28;20048;-75
2023/12/07 01:39:21;;;;;;;0.20;0.20;;;;;;;;;;6291918;28;20028;-75
2023/12/07 01:42:22;;;;;;;0.30;0.30;;;;;;;;;;6291312;28;20025;-75
2023/12/07 01:45:22;;;;;;;0.30;0.30;;;;;;;;;;6289708;28;20379;-76
2023/12/07 01:48:23;;;;;;;0.30;0.30;;;;;;;;;;6273323;28;20037;-75
2023/12/07 01:51:23;;;;;;;0.30;0.30;;;;;;;;;;6291739;28;20035;-75
2023/12/07 01:54:24;;;;;;;0.30;0.30;;;;;;;;;;6301498;28;20475;-75
2023/12/07 01:57:24;;;;;;;0.30;0.30;;;;;;;;;;6291522;28;20036;-75
2023/12/07 02:00:26;;;;;;;0.30;0.30;;;;;;;;;;6292103;28;20036;-75
2023/12/07 02:03:27;;;;;;;0.30;0.30;;;;;;;;;;6290920;28;20041;-74
2023/12/07 02:06:28;;;;;;;0.30;0.30;;;;;;;;;;6291662;28;20281;-75
2023/12/07 02:09:29;;;;;;;0.30;0.30;;;;;;;;;;6272924;28;20064;-75
2023/12/07 02:12:29;;;;;;;0.20;0.20;;;;;;;;;;6291430;28;20074;-84
2023/12/07 02:15:30;;;;;;;0.40;0.40;;;;;;;;;;6291115;28;20529;-84
2023/12/07 02:18:30;;;;;;;0.20;0.20;;;;;;;;;;6278964;28;20415;-84
2023/12/07 02:21:34;;;;;;;0.30;0.30;;;;;;;;;;6289911;28;20017;-84
2023/12/07 02:24:37;;;;;;;0.20;0.20;;;;;;;;;;6290941;28;20099;-84
2023/12/07 02:27:39;;;;;;;0.30;0.30;;;;;;;;;;6273119;28;20052;-84
2023/12/07 02:30:39;;;;;;;0.25;0.25;;;;;;;;;;6271547;28;20063;-84
2023/12/07 02:33:39;;;;;;;0.20;0.20;;;;;;;;;;6272800;28;20041;-84
2023/12/07 02:36:40;;;;;;;0.30;0.30;;;;;;;;;;6290791;28;20166;-84
2023/12/07 02:39:40;;;;;;;0.20;0.20;;;;;;;;;;6290867;28;20493;-83
2023/12/07 02:42:42;;;;;;;0.30;0.30;;;;;;;;;;6293239;28;20017;-83
2023/12/07 02:45:43;;;;;;;0.30;0.30;;;;;;;;;;6277427;28;20028;-83
2023/12/07 02:48:43;;;;;;;0.20;0.20;;;;;;;;;;6295426;28;20043;-83
2023/12/07 02:51:43;;;;;;;0.30;0.30;;;;;;;;;;6289833;28;20475;-83
2023/12/07 02:54:43;;;;;;;0.20;0.20;;;;;;;;;;6301753;28;20043;-83
2023/12/07 02:57:44;;;;;;;0.30;0.30;;;;;;;;;;6282597;28;20027;-83
2023/12/07 03:00:44;;;;;;;0.30;0.30;;;;;;;;;;6293265;28;20441;-83
2023/12/07 03:03:44;;;;;;;0.30;0.30;;;;;;;;;;6294980;28;20098;-83
2023/12/07 03:06:44;;;;;;;0.20;0.20;;;;;;;;;;6276877;28;20021;-83
2023/12/07 03:09:45;;;;;;;0.30;0.30;;;;;;;;;;6295717;28;20029;-84
2023/12/07 03:12:45;;;;;;;0.20;0.20;;;;;;;;;;6294722;28;20013;-74
2023/12/07 03:15:45;;;;;;;0.20;0.20;;;;;;;;;;6294658;28;20103;-74
2023/12/07 03:18:45;;;;;;;0.20;0.20;;;;;;;;;;6276524;28;20104;-74
2023/12/07 03:21:46;;;;;;;0.30;0.30;;;;;;;;;;6294595;28;20095;-74
2023/12/07 03:24:47;;;;;;;0.30;0.30;;;;;;;;;;6294672;28;20091;-74
2023/12/07 03:27:47;;;;;;;0.22;0.22;;;;;;;;;;6294566;28;20685;-74
2023/12/07 03:30:48;;;;;;;0.30;0.30;;;;;;;;;;6290400;28;20024;-74
2023/12/07 03:33:48;;;;;;;0.20;0.20;;;;;;;;;;6295908;28;20035;-74
2023/12/07 03:36:48;;;;;;;0.30;0.30;;;;;;;;;;6294171;28;20020;-74
2023/12/07 03:39:49;;;;;;;0.23;0.23;;;;;;;;;;6288867;28;20475;-74
2023/12/07 03:42:49;;;;;;;0.30;0.30;;;;;;;;;;6294155;28;20424;-74
2023/12/07 03:45:49;;;;;;;0.30;0.30;;;;;;;;;;6290733;28;20466;-74
2023/12/07 03:48:49;;;;;;;0.30;0.30;;;;;;;;;;6293784;28;20028;-74
2023/12/07 03:51:50;;;;;;;0.20;0.20;;;;;;;;;;6292079;28;20024;-74
2023/12/07 03:54:50;;;;;;;0.30;0.30;;;;;;;;;;6279203;28;20031;-74
2023/12/07 03:57:50;;;;;;;0.20;0.20;;;;;;;;;;6291956;28;20701;-74
2023/12/07 04:00:50;;;;;;;0.20;0.20;;;;;;;;;;6293567;28;20364;-73
2023/12/07 04:03:51;;;;;;;0.23;0.23;;;;;;;;;;6293923;28;20044;-74
2023/12/07 04:06:51;;;;;;;0.30;0.30;;;;;;;;;;6294601;28;20016;-73
2023/12/07 04:09:59;;;;;;;0.28;0.28;;;;;;;;;;6283285;28;20067;-74
2023/12/07 04:12:59;;;;;;;0.30;0.30;;;;;;;;;;6290300;28;20016;-74
2023/12/07 04:16:03;;;;;;;0.20;0.20;;;;;;;;;;6292986;28;20024;-74
2023/12/07 04:19:03;;;;;;;0.30;0.30;;;;;;;;;;6292852;28;20471;-74
2023/12/07 04:22:03;;;;;;;0.20;0.20;;;;;;;;;;6251035;28;20029;-74
2023/12/07 04:25:04;;;;;;;0.20;0.20;;;;;;;;;;6291110;28;20442;-74
2023/12/07 04:28:04;;;;;;;0.30;0.30;;;;;;;;;;6292837;28;20048;-74
2023/12/07 04:31:04;;;;;;;0.20;0.20;;;;;;;;;;6292774;28;20059;-74
2023/12/07 04:34:05;;;;;;;0.20;0.20;;;;;;;;;;6293000;28;20026;-74
2023/12/07 04:37:05;;;;;;;0.20;0.20;;;;;;;;;;6293484;28;20013;-74
2023/12/07 04:40:06;;;;;;;0.20;0.20;;;;;;;;;;6289148;28;20036;-74
2023/12/07 04:43:06;;;;;;;0.27;0.27;;;;;;;;;;6267877;28;20012;-84
2023/12/07 04:46:06;;;;;;;0.30;0.30;;;;;;;;;;6292878;28;20032;-84
2023/12/07 04:49:06;;;;;;;0.23;0.23;;;;;;;;;;6292898;28;20013;-84
2023/12/07 04:52:07;;;;;;;0.30;0.30;;;;;;;;;;6293820;28;20249;-84
2023/12/07 04:55:10;;;;;;;0.20;0.20;;;;;;;;;;6298018;28;20052;-84
2023/12/07 04:58:10;;;;;;;0.30;0.30;;;;;;;;;;6277120;28;20077;-84
2023/12/07 05:01:10;;;;;;;0.20;0.20;;;;;;;;;;6292349;28;20186;-84
2023/12/07 05:04:10;;;;;;;0.27;0.27;;;;;;;;;;6274304;28;20190;-84
2023/12/07 05:07:11;;;;;;;0.30;0.30;;;;;;;;;;6293746;28;20126;-83
2023/12/07 05:10:11;;;;;;;0.20;0.20;;;;;;;;;;6283786;28;20063;-84
2023/12/07 05:13:12;;;;;;;0.20;0.20;;;;;;;;;;6292291;28;20117;-84
2023/12/07 05:16:12;;;;;;;0.20;0.20;;;;;;;;;;6301985;28;20028;-84
2023/12/07 05:19:12;;;;;;;0.30;0.30;;;;;;;;;;6273848;28;20021;-84
2023/12/07 05:22:14;;;;;;;0.20;0.20;;;;;;;;;;6291723;28;20026;-84
2023/12/07 05:25:14;;;;;;;0.20;0.20;;;;;;;;;;6291482;28;20016;-85
2023/12/07 05:28:14;;;;;;;0.30;0.30;;;;;;;;;;6291652;28;20048;-84
2023/12/07 05:31:17;;;;;;;0.20;0.20;;;;;;;;;;6292819;28;20550;-85
2023/12/07 05:34:17;;;;;;;0.30;0.30;;;;;;;;;;6278114;28;20415;-84
2023/12/07 05:37:18;;;;;;;0.20;0.20;;;;;;;;;;6291984;28;20039;-85
2023/12/07 05:40:18;;;;;;;0.30;0.30;;;;;;;;;;6291955;28;20021;-85
2023/12/07 05:43:18;;;;;;;0.40;0.40;;;;;;;;;;6291320;28;20067;-76
2023/12/07 05:46:19;;;;;;;0.20;0.20;;;;;;;;;;6273089;28;20067;-77
2023/12/07 05:49:22;;;;;;;0.30;0.30;;;;;;;;;;6291824;28;20048;-75
2023/12/07 05:52:22;;;;;;;0.30;0.30;;;;;;;;;;6295481;28;20042;-75
2023/12/07 05:55:22;;;;;;;0.30;0.30;;;;;;;;;;6291796;28;20017;-75
2023/12/07 05:58:23;;;;;;;0.30;0.30;;;;;;;;;;6291991;28;20463;-75
2023/12/07 06:01:24;;;;;;;0.30;0.30;;;;;;;;;;6291572;28;20031;-84
2023/12/07 06:04:24;;;;;;;0.30;0.30;;;;;;;;;;6291397;28;20040;-75
2023/12/07 06:07:24;;;;;;;0.20;0.20;;;;;;;;;;6290142;28;20039;-75
2023/12/07 06:10:25;;;;;;;0.20;0.20;;;;;;;;;;6282326;28;20096;-75
2023/12/07 06:13:25;;;;;;;0.20;0.20;;;;;;;;;;6302669;28;20098;-84
2023/12/07 06:16:26;;;;;;;0.30;0.30;;;;;;;;;;6299395;28;20070;-83
2023/12/07 06:19:26;;;;;;;0.30;0.30;;;;;;;;;;6312183;28;20100;-83
2023/12/07 06:22:26;;;;;;;0.30;0.30;;;;;;;;;;6280477;28;20103;-83
2023/12/07 06:25:27;;;;;;;0.30;0.30;;;;;;;;;;6316329;28;20390;-83
2023/12/07 06:28:27;;;;;;;0.30;0.30;;;;;;;;;;6303345;28;20409;-83
2023/12/07 06:31:27;;;;;;;0.20;0.20;;;;;;;;;;6296337;28;20032;-83
2023/12/07 06:34:28;;;;;;;0.20;0.20;;;;;;;;;;6311324;28;20032;-83
2023/12/07 06:37:28;;;;;;;0.20;0.20;;;;;;;;;;6292851;28;20016;-83
2023/12/07 06:40:28;;;;;;;0.30;0.30;;;;;;;;;;6295076;28;20028;-83
2023/12/07 06:43:28;;;;;;;0.27;0.27;;;;;;;;;;6291819;28;20020;-84
2023/12/07 06:46:29;;;;;;;0.30;0.30;;;;;;;;;;6296751;28;20029;-85
2023/12/07 06:49:29;;;;;;;0.20;0.20;;;;;;;;;;6301310;28;20024;-85
2023/12/07 06:52:30;;;;;;;0.20;0.20;;;;;;;;;;6295985;28;20017;-74
2023/12/07 06:55:30;;;;;;;0.30;0.30;;;;;;;;;;6295709;28;20543;-74
2023/12/07 06:58:30;;;;;;;0.20;0.20;;;;;;;;;;6289075;28;20115;-74
2023/12/07 07:01:30;;;;;;;0.20;0.20;;;;;;;;;;6297684;28;20541;-84
2023/12/07 07:04:32;;;;;;;0.30;0.30;;;;;;;;;;6277310;28;20057;-85
2023/12/07 07:07:32;;;;;;;0.30;0.30;;;;;;;;;;6294189;28;20546;-85
2023/12/07 07:10:33;;;;;;;0.30;0.30;;;;;;;;;;6294769;28;20149;-85
2023/12/07 07:13:33;;;;;;;0.20;0.20;;;;;;;;;;6277024;28;20020;-86
2023/12/07 07:16:33;;;;;;;0.30;0.30;;;;;;;;;;6288871;28;20025;-86
2023/12/07 07:19:33;;;;;;;0.30;0.30;;;;;;;;;;6294661;28;20020;-86
2023/12/07 07:22:34;;;;;;;0.20;0.20;;;;;;;;;;6295047;28;20016;-86
2023/12/07 07:25:34;;;;;;;0.30;0.30;;;;;;;;;;6301279;28;20009;-87
2023/12/07 07:28:35;;;;;;;0.20;0.20;;;;;;;;;;6302701;28;20016;-88
2023/12/07 07:31:36;;;;;;;0.30;0.30;;;;;;;;;;6305401;28;20024;-88
2023/12/07 07:34:36;;;;;;;0.20;0.20;;;;;;;;;;6306307;28;20021;-88
2023/12/07 07:37:36;;;;;;;0.20;0.20;;;;;;;;;;6300591;28;20540;-87
2023/12/07 07:40:37;;;;;;;0.27;0.27;;;;;;;;;;6279823;28;20447;-87
2023/12/07 07:43:37;;;;;;;0.30;0.30;;;;;;;;;;6303682;28;20395;-89
2023/12/07 07:46:37;;;;;;;0.20;0.20;;;;;;;;;;6314588;28;20805;-88
2023/12/07 07:49:38;;;;;;;0.30;0.30;;;;;;;;;;6305316;28;20043;-88
2023/12/07 07:52:40;;;;;;;0.30;0.30;;;;;;;;;;6298060;28;20471;-75
2023/12/07 07:55:40;;;;;;;0.22;0.22;;;;;;;;;;6290194;28;20466;-75
2023/12/07 07:58:40;;;;;;;0.20;0.20;;;;;;;;;;6299417;28;20043;-74
2023/12/07 08:01:41;;;;;;;0.30;0.30;;;;;;;;;;6305943;28;20023;-74
2023/12/07 08:04:41;;;;;;;0.27;0.27;;;;;;;;;;6293612;28;20040;-74
2023/12/07 08:07:41;;;;;;;0.20;0.20;;;;;;;;;;6297338;28;20496;-74
2023/12/07 08:10:43;;;;;;;0.20;0.20;;;;;;;;;;6299259;28;20017;-74
2023/12/07 08:13:43;;;;;;;0.20;0.20;;;;;;;;;;6292157;28;20048;-74
2023/12/07 08:16:44;;;;;;;0.20;0.20;;;;;;;;;;6303539;28;20478;-74
2023/12/07 08:19:47;;;;;;;0.20;0.20;;;;;;;;;;6289750;28;20074;-74
2023/12/07 08:22:47;;;;;;;0.20;0.20;;;;;;;;;;6287029;28;20462;-74
2023/12/07 08:25:48;;;;;;;0.20;0.20;;;;;;;;;;6290361;28;20044;-74
2023/12/07 08:28:48;;;;;;;0.30;0.30;;;;;;;;;;6302394;28;20152;-74
2023/12/07 08:31:48;;;;;;;0.20;0.20;;;;;;;;;;6296977;28;20146;-74
2023/12/07 08:34:48;;;;;;;0.20;0.20;;;;;;;;;;6295694;28;20012;-74
2023/12/07 08:37:49;;;;;;;0.20;0.20;;;;;;;;;;6300990;28;20020;-74
2023/12/07 08:40:49;;;;;;;0.30;0.30;;;;;;;;;;6301560;28;20047;-74
2023/12/07 08:43:49;;;;;;;0.20;0.20;;;;;;;;;;6304670;28;20379;-74
2023/12/07 08:46:49;;;;;;;0.23;0.23;;;;;;;;;;6309527;28;20053;-74
2023/12/07 08:49:51;;;;;;;0.20;0.20;;;;;;;;;;6302512;28;20430;-74
2023/12/07 08:52:51;;;;;;;0.20;0.20;;;;;;;;;;6296919;28;20137;-74
2023/12/07 08:55:51;;;;;;;0.20;0.20;;;;;;;;;;6291567;28;20028;-74
2023/12/07 08:58:52;;;;;;;0.20;0.20;;;;;;;;;;6306509;28;20023;-74
2023/12/07 09:01:52;;;;;;;0.20;0.20;;;;;;;;;;6273980;28;20024;-74
2023/12/07 09:04:52;;;;;;;0.30;0.30;;;;;;;;;;6276580;28;20077;-75
2023/12/07 09:07:52;;;;;;;0.20;0.20;;;;;;;;;;6292142;28;20020;-75
2023/12/07 09:10:53;;;;;;;0.20;0.20;;;;;;;;;;6292170;28;20012;-75
2023/12/07 09:13:53;;;;;;;0.20;0.20;;;;;;;;;;6291731;28;20375;-75
2023/12/07 09:16:54;;;;;;;0.20;0.20;;;;;;;;;;6292773;28;20020;-75
2023/12/07 09:19:55;;;;;;;0.20;0.20;;;;;;;;;;6279777;28;20370;-74
2023/12/07 09:22:57;;;;;;;0.20;0.20;;;;;;;;;;6291859;28;20059;-75
2023/12/07 09:25:57;;;;;;;0.20;0.20;;;;;;;;;;6273498;28;20107;-75
2023/12/07 09:28:57;;;;;;;0.20;0.20;;;;;;;;;;6292381;28;20758;-75
2023/12/07 09:31:57;;;;;;;0.20;0.20;;;;;;;;;;6303513;28;20483;-75
2023/12/07 09:34:58;;;;;;;0.27;0.27;;;;;;;;;;6291269;28;20031;-75
2023/12/07 09:37:58;;;;;;;0.20;0.20;;;;;;;;;;6292205;28;20024;-75
2023/12/07 09:40:58;;;;;;;0.20;0.20;;;;;;;;;;6291153;28;20024;-75
2023/12/07 09:44:00;;;;;;;0.20;0.20;;;;;;;;;;6292203;28;20016;-75
2023/12/07 09:47:00;;;;;;;0.20;0.20;;;;;;;;;;6295326;28;20052;-75
2023/12/07 09:50:00;;;;;;;0.20;0.20;;;;;;;;;;6291281;28;20012;-75
2023/12/07 09:53:01;;;;;;;0.20;0.20;;;;;;;;;;6302760;28;20701;-75
2023/12/07 09:56:01;;;;;;;0.20;0.20;;;;;;;;;;6291038;28;20053;-75
2023/12/07 09:59:01;;;;;;;0.20;0.20;;;;;;;;;;6287034;28;20013;-75
2023/12/07 10:02:02;;;;;;;0.20;0.20;;;;;;;;;;6290955;28;20016;-75
2023/12/07 10:05:05;;;;;;;0.20;0.20;;;;;;;;;;6291216;28;20094;-75
2023/12/07 10:08:05;;;;;;;0.20;0.20;;;;;;;;;;6291272;28;20025;-75
2023/12/07 10:11:07;;;;;;;0.20;0.20;;;;;;;;;;6289550;28;20381;-75
2023/12/07 10:14:08;;;;;;;0.20;0.20;;;;;;;;;;6291327;28;20056;-75
2023/12/07 10:17:09;;;;;;;0.20;0.20;;;;;;;;;;6274417;28;20393;-76
2023/12/07 10:20:09;;;;;;;0.20;0.20;;;;;;;;;;6284940;28;20008;-75
2023/12/07 10:23:09;;;;;;;0.20;0.20;;;;;;;;;;6289465;28;20066;-75
2023/12/07 10:26:10;;;;;;;0.20;0.20;;;;;;;;;;6273463;28;20016;-75
2023/12/07 10:29:10;;;;;;;0.20;0.20;;;;;;;;;;6306422;28;20032;-75
2023/12/07 10:32:11;;;;;;;0.20;0.20;;;;;;;;;;6295931;28;20040;-81
2023/12/07 10:35:11;;;;;;;0.20;0.20;;;;;;;;;;6283645;28;20103;-81
2023/12/07 10:38:14;;;;;;;0.20;0.20;;;;;;;;;;6272808;28;20052;-80
2023/12/07 10:41:15;;;;;;;0.20;0.20;;;;;;;;;;6288124;28;20064;-80
2023/12/07 10:44:16;;;;;;;0.20;0.20;;;;;;;;;;6292182;28;20474;-80
2023/12/07 10:47:16;;;;;;;0.20;0.20;;;;;;;;;;6290342;28;20021;-80
2023/12/07 10:50:19;;;;;;;0.20;0.20;;;;;;;;;;6286963;28;20047;-80
2023/12/07 10:53:27;;;;;;;0.20;0.20;;;;;;;;;;6292481;28;20016;-80
2023/12/07 10:56:40;;;;;;;0.20;0.20;;;;;;;;;;6279910;28;20021;-81
2023/12/07 10:59:43;;;;;;;0.20;0.20;;;;;;;;;;6279438;28;20047;-81
2023/12/07 11:02:43;;;;;;;0.20;0.20;;;;;;;;;;6286205;28;20464;-80
2023/12/07 11:05:45;;;;;;;0.20;0.20;;;;;;;;;;6269735;28;20033;-80
2023/12/07 11:08:50;;;;;;;0.20;0.20;;;;;;;;;;6269658;28;20095;-80
2023/12/07 11:11:56;;;;;;;0.20;0.20;;;;;;;;;;6260108;28;20032;-80
2023/12/07 11:14:57;;;;;;;0.20;0.20;;;;;;;;;;6273816;28;20100;-81
2023/12/07 11:17:58;;;;;;;0.20;0.20;;;;;;;;;;6278045;28;20029;-81
2023/12/07 11:20:58;;;;;;;0.20;0.20;;;;;;;;;;6277771;28;20920;-81
2023/12/07 11:24:03;;;;;;;0.20;0.20;;;;;;;;;;6269203;28;21574;-80
2023/12/07 11:27:04;;;;;;;0.20;0.20;;;;;;;;;;6263343;28;20029;-81
2023/12/07 11:30:04;;;;;;;0.20;0.20;;;;;;;;;;6268039;28;20021;-80
2023/12/07 11:33:05;;;;;;;0.20;0.20;;;;;;;;;;6263941;28;20033;-74
2023/12/07 11:36:06;;;;;;;0.20;0.20;;;;;;;;;;6274027;28;20086;-75
2023/12/07 11:39:12;;;;;;;0.20;0.20;;;;;;;;;;6270430;28;20157;-75
2023/12/07 11:42:15;;;;;;;0.20;0.20;;;;;;;;;;6268936;28;20017;-74
2023/12/07 11:45:15;;;;;;;0.20;0.20;;;;;;;;;;6261196;28;20399;-74
2023/12/07 11:48:18;;;;;;;0.20;0.20;;;;;;;;;;6262118;28;20024;-74
2023/12/07 11:51:18;;;;;;;0.20;0.20;;;;;;;;;;6255009;28;20036;-74
2023/12/07 11:54:18;;;;;;;0.20;0.20;;;;;;;;;;6265081;28;20033;-74
2023/12/07 11:57:18;;;;;;;0.20;0.20;;;;;;;;;;6267821;28;20021;-74
2023/12/07 12:00:20;;;;;;;0.20;0.20;;;;;;;;;;6268611;28;20023;-74
2023/12/07 12:03:20;;;;;;;0.20;0.20;;;;;;;;;;6272147;28;20067;-74
2023/12/07 12:06:23;;;;;;;0.20;0.20;;;;;;;;;;6292453;28;20028;-74
2023/12/07 12:09:26;;;;;;;0.20;0.20;;;;;;;;;;6292417;28;20059;-74
2023/12/07 12:12:26;;;;;;;0.20;0.20;;;;;;;;;;6287866;28;20020;-74
2023/12/07 12:15:27;;;;;;;0.20;0.20;;;;;;;;;;6289822;28;20491;-74
2023/12/07 12:18:28;;;;;;;0.20;0.20;;;;;;;;;;6294222;28;20028;-74
2023/12/07 12:21:28;;;;;;;0.20;0.20;;;;;;;;;;6293672;28;20082;-74
2023/12/07 12:24:28;;;;;;;0.20;0.20;;;;;;;;;;6309873;28;20486;-74
2023/12/07 12:27:29;;;;;;;0.20;0.20;;;;;;;;;;6289305;28;20498;-74
2023/12/07 12:30:30;;;;;;;0.20;0.20;;;;;;;;;;6293074;28;20028;-74
2023/12/07 12:33:30;;;;;;;0.20;0.20;;;;;;;;;;6274807;28;20028;-74
2023/12/07 12:36:31;;;;;;;0.20;0.20;;;;;;;;;;6292081;28;20062;-74
2023/12/07 12:39:31;;;;;;;0.20;0.20;;;;;;;;;;6292475;28;20063;-74
2023/12/07 12:42:32;;;;;;;0.20;0.20;;;;;;;;;;6292841;28;20500;-74
2023/12/07 12:45:33;;;;;;;0.20;0.20;;;;;;;;;;6292289;28;20024;-74
2023/12/07 12:48:33;;;;;;;0.20;0.20;;;;;;;;;;6292804;28;20028;-74
2023/12/07 12:51:33;;;;;;;0.20;0.20;;;;;;;;;;6291869;28;20465;-76
2023/12/07 12:54:34;;;;;;;0.20;0.20;;;;;;;;;;6300785;28;20025;-74
2023/12/07 12:57:36;;;;;;;0.20;0.20;;;;;;;;;;6291828;28;20027;-74
2023/12/07 13:00:36;;;;;;;;;;;;;;;;;;6260612;28;20008;-74
2023/12/07 13:03:36;;;;;;;0.20;0.20;;;;;;;;;;6291891;28;19920;-75
2023/12/07 13:06:39;;;;;;;0.20;0.20;;;;;;;;;;6292302;28;20499;-74
2023/12/07 13:09:40;;;;;;;0.20;0.20;;;;;;;;;;6278464;28;20027;-74
2023/12/07 13:12:40;;;;;;;0.20;0.20;;;;;;;;;;6292166;28;20033;-74
2023/12/07 13:15:40;;;;;;;0.20;0.20;;;;;;;;;;6278032;28;20012;-74
2023/12/07 13:18:41;;;;;;;0.20;0.20;;;;;;;;;;6291748;28;20112;-74
2023/12/07 13:21:41;;;;;;;0.20;0.20;;;;;;;;;;6292172;28;20012;-74
2023/12/07 13:24:42;;;;;;;0.23;0.23;;;;;;;;;;6292113;28;20429;-74
2023/12/07 13:27:45;;;;;;;0.20;0.20;;;;;;;;;;6289849;28;20098;-74
2023/12/07 13:30:45;;;;;;;0.20;0.20;;;;;;;;;;6292342;28;20028;-74
2023/12/07 13:33:46;;;;;;;0.23;0.23;;;;;;;;;;6292337;28;20035;-74
2023/12/07 13:36:46;;;;;;;0.20;0.20;;;;;;;;;;6300161;28;20137;-74
2023/12/07 13:39:52;;;;;;;0.20;0.20;;;;;;;;;;6293142;28;20367;-74
2023/12/07 13:42:53;;;;;;;0.20;0.20;;;;;;;;;;6291636;28;20033;-74
2023/12/07 13:45:53;;;;;;;0.20;0.20;;;;;;;;;;6292134;28;20074;-74
2023/12/07 13:48:53;;;;;;;0.20;0.20;;;;;;;;;;6290976;28;20039;-74
2023/12/07 13:51:54;;;;;;;0.20;0.20;;;;;;;;;;6291736;28;20451;-74
2023/12/07 13:54:54;;;;;;;0.27;0.27;;;;;;;;;;6291278;28;20016;-74
2023/12/07 13:57:56;;;;;;;0.20;0.20;;;;;;;;;;6292962;28;20032;-74
2023/12/07 14:00:56;;;;;;;0.20;0.20;;;;;;;;;;6272927;28;20013;-74
2023/12/07 14:03:57;;;;;;;0.20;0.20;;;;;;;;;;6291644;28;20051;-75
2023/12/07 14:07:06;;;;;;;0.20;0.20;;;;;;;;;;6290571;28;20502;-75
2023/12/07 14:10:07;;;;;;;0.30;0.30;;;;;;;;;;6291103;28;20023;-75
2023/12/07 14:13:09;;;;;;;0.20;0.20;;;;;;;;;;6291475;28;20028;-75
2023/12/07 14:16:09;;;;;;;0.20;0.20;;;;;;;;;;6291310;28;20794;-75
2023/12/07 14:19:09;;;;;;;0.20;0.20;;;;;;;;;;6290744;28;20023;-75
2023/12/07 14:22:10;;;;;;;0.20;0.20;;;;;;;;;;6291342;28;20020;-75
2023/12/07 14:25:10;;;;;;;0.20;0.20;;;;;;;;;;6291705;28;20020;-75
2023/12/07 14:28:10;;;;;;;0.20;0.20;;;;;;;;;;6283707;28;20149;-75
2023/12/07 14:31:16;;;;;;;0.20;0.20;;;;;;;;;;6290396;28;20023;-75
2023/12/07 14:34:16;;;;;;;0.20;0.20;;;;;;;;;;6283494;28;20364;-75
2023/12/07 14:37:17;;;;;;;0.20;0.20;;;;;;;;;;6291238;28;20070;-75
2023/12/07 14:40:17;;;;;;;0.20;0.20;;;;;;;;;;6276983;28;20031;-75
2023/12/07 14:43:17;;;;;;;0.20;0.20;;;;;;;;;;6293707;28;20009;-75
2023/12/07 14:46:17;;;;;;;0.20;0.20;;;;;;;;;;6310763;28;20709;-75
2023/12/07 14:49:21;;;;;;;0.20;0.20;;;;;;;;;;6282810;28;20032;-75
2023/12/07 14:52:21;;;;;;;0.20;0.20;;;;;;;;;;6295039;28;20024;-76
2023/12/07 14:55:21;;;;;;;0.20;0.20;;;;;;;;;;6298574;28;20434;-76
2023/12/07 14:58:22;;;;;;;0.20;0.20;;;;;;;;;;6294713;28;20100;-76
2023/12/07 15:01:22;;;;;;;0.20;0.20;;;;;;;;;;6284863;28;20051;-76
2023/12/07 15:04:22;;;;;;;0.30;0.30;;;;;;;;;;6287437;28;20056;-76
2023/12/07 15:07:22;;;;;;;0.23;0.23;;;;;;;;;;6287312;28;20052;-76
2023/12/07 15:10:23;;;;;;;0.20;0.20;;;;;;;;;;6302707;28;20030;-76
2023/12/07 15:13:23;;;;;;;0.20;0.20;;;;;;;;;;6294840;28;20482;-76
2023/12/07 15:16:23;;;;;;;0.30;0.30;;;;;;;;;;6294324;28;20032;-76
2023/12/07 15:19:23;;;;;;;0.20;0.20;;;;;;;;;;6290291;28;20025;-77
2023/12/07 15:22:24;;;;;;;0.20;0.20;;;;;;;;;;6294592;28;20026;-77
2023/12/07 15:25:24;;;;;;;0.20;0.20;;;;;;;;;;6303414;28;20027;-77
2023/12/07 15:28:24;;;;;;;0.30;0.30;;;;;;;;;;6296014;28;20084;-77
2023/12/07 15:31:25;;;;;;;0.30;0.30;;;;;;;;;;6290268;28;20478;-77
2023/12/07 15:34:25;;;;;;;0.20;0.20;;;;;;;;;;6289990;28;20453;-78
2023/12/07 15:37:25;;;;;;;0.30;0.30;;;;;;;;;;6274318;28;20033;-77
2023/12/07 15:40:25;;;;;;;0.20;0.20;;;;;;;;;;6294716;28;20162;-77
2023/12/07 15:43:26;;;;;;;0.20;0.20;;;;;;;;;;6286018;28;20028;-77
2023/12/07 15:46:26;;;;;;;0.20;0.20;;;;;;;;;;6273902;28;20102;-77
2023/12/07 15:49:26;;;;;;;0.20;0.20;;;;;;;;;;6281647;28;20434;-77
2023/12/07 15:52:26;;;;;;;0.30;0.30;;;;;;;;;;6287257;28;20047;-77
2023/12/07 15:55:27;;;;;;;0.20;0.20;;;;;;;;;;6293535;28;20047;-77
2023/12/07 15:58:27;;;;;;;0.20;0.20;;;;;;;;;;6275361;28;20024;-76
2023/12/07 16:01:27;;;;;;;0.20;0.20;;;;;;;;;;6276232;28;20459;-77
2023/12/07 16:04:28;;;;;;;0.20;0.20;;;;;;;;;;6274491;28;20415;-77
2023/12/07 16:07:29;;;;;;;0.20;0.20;;;;;;;;;;6283004;28;20082;-77
2023/12/07 16:10:29;;;;;;;0.20;0.20;;;;;;;;;;6286338;28;20359;-77
2023/12/07 16:13:29;;;;;;;0.20;0.20;;;;;;;;;;6275614;28;20025;-77
2023/12/07 16:16:29;;;;;;;0.30;0.30;;;;;;;;;;6294189;28;20035;-76
2023/12/07 16:19:30;;;;;;;0.30;0.30;;;;;;;;;;6287231;28;20016;-77
2023/12/07 16:22:30;;;;;;;0.20;0.20;;;;;;;;;;6299917;28;20021;-77
2023/12/07 16:25:30;;;;;;;0.20;0.20;;;;;;;;;;6293153;28;20074;-76
2023/12/07 16:28:31;;;;;;;0.20;0.20;;;;;;;;;;6300474;28;20390;-76
2023/12/07 16:31:31;;;;;;;0.20;0.20;;;;;;;;;;6309047;28;20029;-77
2023/12/07 16:34:31;;;;;;;0.20;0.20;;;;;;;;;;6288050;28;20021;-76
2023/12/07 16:37:32;;;;;;;0.20;0.20;;;;;;;;;;6283227;28;20111;-76
2023/12/07 16:40:32;;;;;;;0.20;0.20;;;;;;;;;;6293306;28;20020;-77
2023/12/07 16:43:32;;;;;;;0.20;0.20;;;;;;;;;;6293043;28;20020;-76
2023/12/07 16:46:33;;;;;;;0.20;0.20;;;;;;;;;;6293120;28;20082;-76
2023/12/07 16:49:33;;;;;;;0.20;0.20;;;;;;;;;;6298745;28;20030;-76
2023/12/07 16:52:35;;;;;;;0.20;0.20;;;;;;;;;;6293053;28;20020;-76
2023/12/07 16:55:35;;;;;;;0.30;0.30;;;;;;;;;;6291449;28;20036;-76
2023/12/07 16:58:35;;;;;;;0.20;0.20;;;;;;;;;;6297834;28;20115;-76
2023/12/07 17:01:36;;;;;;;0.20;0.20;;;;;;;;;;6292155;28;20479;-77
2023/12/07 17:04:36;;;;;;;0.20;0.20;;;;;;;;;;6295199;28;20044;-76
2023/12/07 17:07:36;;;;;;;0.20;0.20;;;;;;;;;;6298263;28;20032;-76
2023/12/07 17:10:37;;;;;;;0.20;0.20;;;;;;;;;;6297507;28;20099;-77
2023/12/07 17:13:37;;;;;;;0.20;0.20;;;;;;;;;;6293402;28;20387;-76
2023/12/07 17:16:37;;;;;;;0.20;0.20;;;;;;;;;;6294542;28;20031;-76
2023/12/07 17:19:38;;;;;;;0.20;0.20;;;;;;;;;;6298479;28;20093;-76
2023/12/07 17:22:38;;;;;;;0.20;0.20;;;;;;;;;;6287619;28;20090;-75
2023/12/07 17:25:38;;;;;;;0.20;0.20;;;;;;;;;;6253406;28;20593;-76
2023/12/07 17:28:38;;;;;;;0.20;0.20;;;;;;;;;;6292394;28;20025;-76
2023/12/07 17:31:39;;;;;;;0.20;0.20;;;;;;;;;;6290366;28;20107;-76
2023/12/07 17:34:41;;;;;;;0.20;0.20;;;;;;;;;;6292773;28;20154;-76
2023/12/07 17:37:41;;;;;;;0.20;0.20;;;;;;;;;;6300027;28;20024;-76
2023/12/07 17:40:41;;;;;;;0.20;0.20;;;;;;;;;;6293909;28;20433;-76
2023/12/07 17:43:42;;;;;;;0.27;0.27;;;;;;;;;;6290792;28;20017;-77
2023/12/07 17:46:42;;;;;;;0.20;0.20;;;;;;;;;;6300202;28;20069;-77
2023/12/07 17:49:42;;;;;;;0.20;0.20;;;;;;;;;;6300455;28;20051;-77
2023/12/07 17:52:44;;;;;;;0.20;0.20;;;;;;;;;;6276788;28;20020;-76
2023/12/07 17:55:44;;;;;;;;;;;;;;;;;;6294581;28;20031;-76
2023/12/07 17:58:44;;;;;;;0.30;0.30;;;;;;;;;;6296005;28;19998;-76
2023/12/07 18:01:45;;;;;;;0.30;0.30;;;;;;;;;;6308827;28;20557;-76